Time;durP1;ratioP1;P1;durP2;ratioP2;P2;SDS_P1;SDS_P2;PMS_P1;PMS_P2;Temp;Humidity;BMP_temperature;BMP_pressure;BME280_temperature;BME280_humidity;BME280_pressure;Samples;Min_cycle;Max_cycle;Signal;HPM_P1;HPM_P2
2021/12/06 00:00:30;;;;;;;;;;;;;;;9.43;67.03;94183.22;5055139;28;1089;-51
2021/12/06 00:02:58;;;;;;;;;;;;;;;9.31;67.65;94197.97;5055276;28;1918;-51
2021/12/06 00:05:25;;;;;;;;;;;;;;;9.26;68.06;94189.66;5055205;28;1033;-51
2021/12/06 00:07:51;;;;;;;;;;;;;;;9.23;68.46;94190.03;5055498;28;1025;-51
2021/12/06 00:10:17;;;;;;;;;;;;;;;9.22;68.49;94181.22;5054850;28;1016;-51
2021/12/06 00:12:43;;;;;;;;;;;;;;;9.16;68.63;94173.88;5055021;28;958;-51
2021/12/06 00:15:10;;;;;;;;;;;;;;;9.08;68.77;94165.94;5054849;28;990;-51
2021/12/06 00:17:36;;;;;;;;;;;;;;;9.02;69.25;94178.16;5054667;28;985;-51
2021/12/06 00:20:03;;;;;;;;;;;;;;;9.01;69.32;94176.50;5054767;28;1214;-51
2021/12/06 00:22:29;;;;;;;;;;;;;;;9.04;69.60;94183.31;5054719;28;1910;-51
2021/12/06 00:24:57;;;;;;;;;;;;;;;9.04;70.44;94191.31;5054785;28;1034;-51
2021/12/06 00:27:23;;;;;;;;;;;;;;;8.94;70.32;94192.34;5054519;28;982;-51
2021/12/06 00:29:49;;;;;;;;;;;;;;;8.75;70.87;94192.78;5055010;28;1016;-51
2021/12/06 00:32:16;;;;;;;;;;;;;;;8.64;71.14;94201.16;5054231;28;1090;-51
2021/12/06 00:34:42;;;;;;;;;;;;;;;8.59;71.20;94194.50;5054600;28;1057;-51
2021/12/06 00:37:21;;;;;;;;;;;;;;;8.65;71.00;94205.47;5054475;28;994;-51
2021/12/06 00:39:52;;;;;;;;;;;;;;;8.62;71.62;94209.31;5054886;28;1050;-51
2021/12/06 00:42:20;;;;;;;;;;;;;;;8.46;72.25;94217.34;5054111;28;1910;-51
2021/12/06 00:44:46;;;;;;;;;;;;;;;8.35;72.50;94214.03;5054812;28;994;-51
2021/12/06 00:47:12;;;;;;;;;;;;;;;8.25;72.98;94207.22;5054048;28;1038;-51
2021/12/06 00:49:38;;;;;;;;;;;;;;;8.37;72.58;94197.88;5054408;28;978;-51
2021/12/06 00:52:04;;;;;;;;;;;;;;;8.50;72.18;94194.69;5054047;28;1035;-51
2021/12/06 00:54:34;;;;;;;;;;;;;;;8.55;72.13;94189.69;5054721;28;1060;-51
2021/12/06 00:57:01;;;;;;;;;;;;;;;8.51;72.24;94191.03;5054033;28;1072;-51
2021/12/06 00:59:28;;;;;;;;;;;;;;;8.41;72.91;94196.53;5054475;28;1044;-51
2021/12/06 01:01:54;;;;;;;;;;;;;;;8.34;72.84;94190.22;5053775;28;2009;-51
2021/12/06 01:04:20;;;;;;;;;;;;;;;8.31;73.29;94185.22;5054024;28;965;-51
2021/12/06 01:06:46;;;;;;;;;;;;;;;8.34;73.30;94168.91;5054039;28;1045;-51
2021/12/06 01:09:12;;;;;;;;;;;;;;;8.32;73.41;94160.28;5054252;28;1024;-51
2021/12/06 01:11:38;;;;;;;;;;;;;;;8.44;72.72;94168.75;5053465;28;1024;-51
2021/12/06 01:14:04;;;;;;;;;;;;;;;8.42;72.90;94146.78;5054154;28;970;-51
2021/12/06 01:16:30;;;;;;;;;;;;;;;8.42;73.16;94146.78;5053513;28;950;-51
2021/12/06 01:18:56;;;;;;;;;;;;;;;8.42;73.00;94149.44;5053525;28;1174;-51
2021/12/06 01:21:39;;;;;;;;;;;;;;;8.32;73.49;94147.78;5053442;28;1914;-51
2021/12/06 01:24:05;;;;;;;;;;;;;;;8.36;73.20;94157.09;5053890;28;966;-51
2021/12/06 01:29:37;;;;;;;;;;;;;;;8.40;73.29;94150.44;5052829;28;1198;-51
2021/12/06 01:39:58;;;;;;;;;;;;;;;8.29;74.52;94129.50;5053744;28;1033;-51
2021/12/06 01:42:24;;;;;;;;;;;;;;;8.25;73.39;94116.69;5052961;28;1997;-51
2021/12/06 01:44:54;;;;;;;;;;;;;;;8.12;73.57;94099.44;5053701;28;958;-51
2021/12/06 01:47:27;;;;;;;;;;;;;;;7.97;74.38;94104.63;5053098;28;978;-51
2021/12/06 01:49:54;;;;;;;;;;;;;;;8.14;74.08;94099.28;5053285;28;1120;-51
2021/12/06 01:52:25;;;;;;;;;;;;;;;8.29;73.87;94107.34;5052775;28;1006;-51
2021/12/06 01:54:52;;;;;;;;;;;;;;;8.30;74.23;94109.00;5053467;28;981;-51
2021/12/06 01:57:18;;;;;;;;;;;;;;;8.26;74.55;94111.19;5052702;28;1038;-51
2021/12/06 01:59:44;;;;;;;;;;;;;;;8.27;74.64;94104.03;5053030;28;1046;-51
2021/12/06 02:02:11;;;;;;;;;;;;;;;8.31;74.58;94100.84;5052651;28;1918;-51
2021/12/06 02:04:38;;;;;;;;;;;;;;;8.42;74.07;94099.66;5053018;28;986;-51
2021/12/06 02:07:06;;;;;;;;;;;;;;;8.48;73.76;94098.13;5052673;28;1036;-51
2021/12/06 02:09:32;;;;;;;;;;;;;;;8.47;73.80;94094.66;5053229;28;990;-51
2021/12/06 02:12:00;;;;;;;;;;;;;;;8.38;74.40;94090.31;5052405;28;1045;-51
2021/12/06 02:19:35;;;;;;;;;;;;;;;8.47;74.31;94093.81;5052625;28;1210;-51
2021/12/06 02:22:01;;;;;;;;;;;;;;;8.42;74.46;94098.84;5052540;28;1910;-51
2021/12/06 02:24:30;;;;;;;;;;;;;;;8.42;74.05;94099.66;5052859;28;1112;-51
2021/12/06 02:26:57;;;;;;;;;;;;;;;8.47;73.96;94099.97;5052775;28;1064;-51
2021/12/06 02:29:23;;;;;;;;;;;;;;;8.53;73.85;94099.28;5052221;28;1022;-51
2021/12/06 02:31:49;;;;;;;;;;;;;;;8.46;73.97;94098.34;5052418;28;1239;-51
2021/12/06 02:34:15;;;;;;;;;;;;;;;8.36;74.27;94095.81;5052514;28;990;-51
2021/12/06 02:36:42;;;;;;;;;;;;;;;8.29;74.99;94091.38;5052744;28;1025;-51
2021/12/06 02:39:10;;;;;;;;;;;;;;;8.37;74.67;94096.69;5052029;28;1033;-51
2021/12/06 02:41:36;;;;;;;;;;;;;;;8.32;74.75;94105.16;5052044;28;1979;-51
2021/12/06 02:44:03;;;;;;;;;;;;;;;8.32;75.06;94107.81;5051969;28;1272;-51
2021/12/06 02:46:29;;;;;;;;;;;;;;;8.39;74.51;94107.97;5052531;28;1016;-51
2021/12/06 02:48:55;;;;;;;;;;;;;;;8.37;74.72;94097.50;5051937;28;1453;-51
2021/12/06 02:51:21;;;;;;;;;;;;;;;8.40;74.84;94086.50;5052620;28;977;-51
2021/12/06 02:53:48;;;;;;;;;;;;;;;8.34;75.21;94095.16;5052390;28;1082;-51
2021/12/06 02:56:39;;;;;;;;;;;;;;;8.32;75.17;94096.34;5052507;28;986;-51
2021/12/06 02:59:07;;;;;;;;;;;;;;;8.35;74.97;94096.03;5051898;28;977;-51
2021/12/06 03:01:44;;;;;;;;;;;;;;;8.30;75.52;94099.19;5052319;28;1910;-51
2021/12/06 03:04:11;;;;;;;;;;;;;;;8.32;75.99;94088.38;5052258;28;1893;-51
2021/12/06 03:06:40;;;;;;;;;;;;;;;8.35;75.35;94106.69;5052564;28;1045;-51
2021/12/06 03:09:14;;;;;;;;;;;;;;;8.42;75.27;94096.19;5051951;28;1998;-51
2021/12/06 03:11:40;;;;;;;;;;;;;;;8.47;75.18;94094.66;5052166;28;1029;-51
2021/12/06 03:14:08;;;;;;;;;;;;;;;8.57;74.74;94092.63;5052054;28;974;-51
2021/12/06 03:16:34;;;;;;;;;;;;;;;8.62;74.69;94083.25;5052412;28;1041;-51
2021/12/06 03:19:00;;;;;;;;;;;;;;;8.60;74.42;94083.44;5051641;28;1174;-51
2021/12/06 03:21:27;;;;;;;;;;;;;;;8.66;74.29;94087.22;5051144;28;1903;-51
2021/12/06 03:23:55;;;;;;;;;;;;;;;8.69;74.26;94079.72;5051738;28;1108;-51
2021/12/06 03:26:21;;;;;;;;;;;;;;;8.77;73.85;94079.66;5052103;28;1017;-51
2021/12/06 03:28:47;;;;;;;;;;;;;;;8.76;74.14;94077.16;5051553;28;978;-51
2021/12/06 03:31:14;;;;;;;;;;;;;;;8.70;74.84;94068.03;5052221;28;1102;-51
2021/12/06 03:33:42;;;;;;;;;;;;;;;8.74;74.58;94077.34;5051544;28;1338;-51
2021/12/06 03:36:08;;;;;;;;;;;;;;;8.68;74.98;94066.56;5052234;28;1041;-51
2021/12/06 03:38:35;;;;;;;;;;;;;;;8.56;75.45;94055.50;5051668;28;1129;-51
2021/12/06 03:41:01;;;;;;;;;;;;;;;8.57;75.39;94067.78;5051547;28;1910;-51
2021/12/06 03:43:27;;;;;;;;;;;;;;;8.60;75.49;94059.47;5051499;28;1112;-51
2021/12/06 03:45:53;;;;;;;;;;;;;;;8.60;75.61;94059.47;5052227;28;1049;-51
2021/12/06 03:48:19;;;;;;;;;;;;;;;8.62;75.79;94062.78;5051734;28;938;-51
2021/12/06 03:50:46;;;;;;;;;;;;;;;8.60;76.11;94064.78;5052616;28;1186;-51
2021/12/06 03:53:12;;;;;;;;;;;;;;;8.58;75.81;94064.13;5055248;28;1032;-51
2021/12/06 03:55:38;;;;;;;;;;;;;;;8.57;76.50;94065.97;5055355;28;1042;-51
2021/12/06 03:58:04;;;;;;;;;;;;;;;8.53;76.41;94066.47;5054888;28;1024;-51
2021/12/06 04:00:30;;;;;;;;;;;;;;;8.54;76.14;94068.16;5055272;28;1072;-50
2021/12/06 04:02:56;;;;;;;;;;;;;;;8.56;76.24;94066.16;5055328;28;1906;-51
2021/12/06 04:05:22;;;;;;;;;;;;;;;8.56;76.19;94063.47;5055115;28;1061;-51
2021/12/06 04:07:48;;;;;;;;;;;;;;;8.48;76.60;94063.50;5055074;28;1883;-51
2021/12/06 04:10:14;;;;;;;;;;;;;;;8.36;77.27;94063.88;5054872;28;1029;-51
2021/12/06 04:12:40;;;;;;;;;;;;;;;8.46;77.06;94062.84;5055117;28;978;-51
2021/12/06 04:15:08;;;;;;;;;;;;;;;8.37;77.70;94062.06;5055134;28;1068;-51
2021/12/06 04:17:35;;;;;;;;;;;;;;;8.46;77.00;94060.19;5055133;28;1102;-51
2021/12/06 04:20:02;;;;;;;;;;;;;;;8.31;77.63;94057.41;5054520;28;1150;-51
2021/12/06 04:22:28;;;;;;;;;;;;;;;8.17;78.32;94051.81;5054928;28;2011;-51
2021/12/06 04:24:54;;;;;;;;;;;;;;;8.16;78.35;94057.31;5054950;28;1982;-51
2021/12/06 04:27:21;;;;;;;;;;;;;;;8.06;79.08;94046.03;5054808;28;1085;-51
2021/12/06 04:29:49;;;;;;;;;;;;;;;8.15;78.38;94047.66;5054744;28;1037;-51
2021/12/06 04:32:15;;;;;;;;;;;;;;;8.31;77.64;94060.91;5054570;28;1345;-51
2021/12/06 04:34:43;;;;;;;;;;;;;;;8.29;77.73;94054.94;5054559;28;1002;-51
2021/12/06 04:37:10;;;;;;;;;;;;;;;8.32;77.51;94053.75;5054759;28;997;-51
2021/12/06 04:39:37;;;;;;;;;;;;;;;8.33;77.40;94063.41;5054099;28;1084;-51
2021/12/06 04:42:03;;;;;;;;;;;;;;;8.49;76.49;94057.19;5054312;28;2005;-51
2021/12/06 04:44:29;;;;;;;;;;;;;;;8.58;75.81;94048.97;5054192;28;1084;-51
2021/12/06 04:46:56;;;;;;;;;;;;;;;8.66;74.86;94047.25;5054639;28;1005;-51
2021/12/06 04:49:25;;;;;;;;;;;;;;;8.76;74.40;94040.72;5054136;28;958;-51
2021/12/06 04:51:52;;;;;;;;;;;;;;;8.91;73.48;94047.91;5054494;28;1040;-51
2021/12/06 04:54:19;;;;;;;;;;;;;;;9.13;72.73;94059.59;5053612;28;1061;-51
2021/12/06 04:56:48;;;;;;;;;;;;;;;9.25;72.15;94060.00;5054558;28;985;-51
2021/12/06 04:59:20;;;;;;;;;;;;;;;9.27;72.15;94063.31;5053836;28;1029;-51
2021/12/06 05:01:47;;;;;;;;;;;;;;;9.21;71.99;94059.53;5054045;28;1996;-51
2021/12/06 05:04:19;;;;;;;;;;;;;;;9.28;71.79;94070.31;5053818;28;982;-51
2021/12/06 05:06:45;;;;;;;;;;;;;;;9.38;71.37;94082.38;5054410;28;1029;-51
2021/12/06 05:09:38;;;;;;;;;;;;;;;9.48;71.05;94060.78;5053406;28;1045;-51
2021/12/06 05:12:04;;;;;;;;;;;;;;;9.51;71.00;94071.09;5050665;28;2003;-51
2021/12/06 05:14:30;;;;;;;;;;;;;;;9.62;71.00;94077.00;5053551;28;1970;-51
2021/12/06 05:16:56;;;;;;;;;;;;;;;9.60;71.16;94074.53;5054298;28;1752;-51
2021/12/06 05:19:23;;;;;;;;;;;;;;;9.46;71.91;94073.47;5053377;28;1628;-51
2021/12/06 05:21:49;;;;;;;;;;;;;;;9.37;72.58;94075.41;5054132;28;1927;-51
2021/12/06 05:24:16;;;;;;;;;;;;;;;9.17;73.20;94072.38;5053071;28;1038;-51
2021/12/06 05:26:42;;;;;;;;;;;;;;;9.13;73.43;94086.25;5053915;28;1009;-51
2021/12/06 05:29:09;;;;;;;;;;;;;;;9.13;73.46;94078.25;5053503;28;1060;-51
2021/12/06 05:31:39;;;;;;;;;;;;;;;9.15;73.67;94074.41;5054031;28;1085;-51
2021/12/06 05:34:11;;;;;;;;;;;;;;;9.14;73.60;94069.25;5053041;28;1266;-51
2021/12/06 05:36:37;;;;;;;;;;;;;;;9.01;73.96;94069.00;5053850;28;1052;-51
2021/12/06 05:39:06;;;;;;;;;;;;;;;8.94;74.50;94071.56;5052924;28;1053;-51
2021/12/06 05:41:32;;;;;;;;;;;;;;;9.19;74.15;94058.88;5052984;28;1910;-51
2021/12/06 05:43:58;;;;;;;;;;;;;;;9.78;72.45;94068.84;5053312;28;1121;-51
2021/12/06 05:46:24;;;;;;;;;;;;;;;10.13;71.62;94077.97;5051898;28;1069;-51
2021/12/06 05:48:50;;;;;;;;;;;;;;;10.21;72.02;94089.59;5053058;28;1045;-51
2021/12/06 05:51:16;;;;;;;;;;;;;;;10.22;72.46;94084.03;5052923;28;1207;-51
2021/12/06 05:53:42;;;;;;;;;;;;;;;10.18;73.03;94079.25;5053065;28;1045;-51
2021/12/06 05:56:08;;;;;;;;;;;;;;;10.10;74.18;94069.50;5052844;28;1030;-51
2021/12/06 05:58:35;;;;;;;;;;;;;;;10.04;75.68;94072.91;5053475;28;1024;-51
2021/12/06 06:01:02;;;;;;;;;;;;;;;10.06;76.01;94071.72;5052818;28;1909;-51
2021/12/06 06:03:28;;;;;;;;;;;;;;;10.05;75.78;94077.22;5053130;28;1062;-51
2021/12/06 06:05:54;;;;;;;;;;;;;;;9.92;77.67;94089.38;5053227;28;1009;-51
2021/12/06 06:08:20;;;;;;;;;;;;;;;9.75;78.90;94094.06;5051716;28;1044;-51
2021/12/06 06:10:47;;;;;;;;;;;;;;;9.64;80.36;94088.34;5052675;28;1040;-51
2021/12/06 06:13:13;;;;;;;;;;;;;;;9.57;80.75;94086.38;5052572;28;1044;-51
2021/12/06 06:15:40;;;;;;;;;;;;;;;9.60;80.47;94092.34;5052333;28;1064;-51
2021/12/06 06:18:06;;;;;;;;;;;;;;;9.64;80.80;94077.66;5052617;28;1301;-51
2021/12/06 06:20:37;;;;;;;;;;;;;;;9.66;81.04;94087.13;5052322;28;1301;-51
2021/12/06 06:23:04;;;;;;;;;;;;;;;9.65;79.99;94098.00;5052749;28;1989;-51
2021/12/06 06:25:30;;;;;;;;;;;;;;;9.71;80.17;94102.59;5052634;28;966;-51
2021/12/06 06:27:56;;;;;;;;;;;;;;;9.75;80.03;94104.75;5052954;28;1033;-51
2021/12/06 06:30:22;;;;;;;;;;;;;;;9.80;80.04;94106.84;5052218;28;977;-51
2021/12/06 06:32:49;;;;;;;;;;;;;;;9.77;80.84;94116.06;5051273;28;1149;-51
2021/12/06 06:35:16;;;;;;;;;;;;;;;9.89;80.63;94113.78;5052163;28;1112;-51
2021/12/06 06:37:42;;;;;;;;;;;;;;;9.93;80.07;94114.25;5052544;28;961;-51
2021/12/06 06:40:08;;;;;;;;;;;;;;;9.99;80.09;94115.34;5052250;28;966;-51
2021/12/06 06:42:34;;;;;;;;;;;;;;;9.91;80.90;94130.44;5052592;28;1910;-51
2021/12/06 06:45:01;;;;;;;;;;;;;;;9.87;81.15;94121.13;5052528;28;1013;-51
2021/12/06 06:47:27;;;;;;;;;;;;;;;9.95;80.98;94112.22;5052519;28;978;-51
2021/12/06 06:49:53;;;;;;;;;;;;;;;9.94;80.98;94108.72;5052371;28;994;-51
2021/12/06 06:52:19;;;;;;;;;;;;;;;9.90;81.42;94103.91;5050933;28;1200;-51
2021/12/06 06:54:45;;;;;;;;;;;;;;;9.95;80.93;94107.69;5052427;28;1032;-51
2021/12/06 06:57:11;;;;;;;;;;;;;;;9.94;81.22;94111.41;5052473;28;1025;-51
2021/12/06 06:59:38;;;;;;;;;;;;;;;9.92;81.13;94109.91;5052288;28;1026;-51
2021/12/06 07:02:04;;;;;;;;;;;;;;;9.97;80.00;94112.84;5051883;28;1903;-51
2021/12/06 07:04:30;;;;;;;;;;;;;;;9.98;80.79;94103.84;5052033;28;1034;-51
2021/12/06 07:06:56;;;;;;;;;;;;;;;9.98;78.13;94119.88;5052247;28;1001;-51
2021/12/06 07:09:22;;;;;;;;;;;;;;;10.11;77.66;94103.19;5052338;28;966;-51
2021/12/06 07:11:49;;;;;;;;;;;;;;;10.17;77.51;94097.13;5052125;28;1053;-51
2021/12/06 07:14:16;;;;;;;;;;;;;;;10.26;77.03;94104.03;5052354;28;1048;-51
2021/12/06 07:16:42;;;;;;;;;;;;;;;10.30;76.95;94116.03;5051887;28;1068;-51
2021/12/06 07:19:08;;;;;;;;;;;;;;;10.29;77.75;94121.53;5052044;28;1178;-51
2021/12/06 07:21:35;;;;;;;;;;;;;;;10.38;76.92;94128.47;5050708;28;1922;-51
2021/12/06 07:24:01;;;;;;;;;;;;;;;10.37;78.10;94120.63;5052434;28;1065;-51
2021/12/06 07:26:27;;;;;;;;;;;;;;;10.29;78.97;94108.19;5053844;28;1005;-51
2021/12/06 07:28:56;;;;;;;;;;;;;;;10.20;79.53;94133.31;5056380;28;1025;-51
2021/12/06 07:31:23;;;;;;;;;;;;;;;10.21;78.95;94118.97;5055440;28;1041;-51
2021/12/06 07:33:49;;;;;;;;;;;;;;;10.27;79.35;94123.56;5055669;28;979;-51
2021/12/06 07:36:16;;;;;;;;;;;;;;;10.24;79.51;94124.75;5055433;28;1030;-51
2021/12/06 07:38:42;;;;;;;;;;;;;;;10.17;79.34;94123.84;5055821;28;1053;-51
2021/12/06 07:41:10;;;;;;;;;;;;;;;10.09;80.63;94131.91;5055024;28;1913;-51
2021/12/06 07:43:36;;;;;;;;;;;;;;;10.01;81.90;94126.69;5055655;28;1058;-51
2021/12/06 07:46:04;;;;;;;;;;;;;;;9.99;82.16;94136.72;5055544;28;1005;-51
2021/12/06 07:48:30;;;;;;;;;;;;;;;10.04;82.31;94132.47;5055697;28;1060;-51
2021/12/06 07:50:56;;;;;;;;;;;;;;;10.00;83.31;94128.53;5055361;28;1032;-51
2021/12/06 07:53:22;;;;;;;;;;;;;;;9.96;83.04;94122.72;5055363;28;1213;-51
2021/12/06 07:55:48;;;;;;;;;;;;;;;9.98;84.09;94119.88;5055424;28;1884;-51
2021/12/06 07:58:14;;;;;;;;;;;;;;;9.97;84.20;94108.34;5055324;28;1029;-52
2021/12/06 08:00:44;;;;;;;;;;;;;;;9.93;84.22;94099.03;5054997;28;1230;-51
2021/12/06 08:03:10;;;;;;;;;;;;;;;9.98;84.46;94098.50;5055008;28;1910;-51
2021/12/06 08:05:38;;;;;;;;;;;;;;;10.02;84.89;94093.63;5055222;28;982;-51
2021/12/06 08:08:08;;;;;;;;;;;;;;;10.02;85.11;94096.31;5055115;28;1084;-51
2021/12/06 08:10:36;;;;;;;;;;;;;;;9.96;84.49;94111.22;5054831;28;2009;-51
2021/12/06 08:13:03;;;;;;;;;;;;;;;9.93;85.83;94109.72;5055336;28;1008;-51
2021/12/06 08:15:30;;;;;;;;;;;;;;;9.91;87.13;94116.25;5054971;28;1024;-51
2021/12/06 08:17:55;;;;;;;;;;;;;;;9.86;87.33;94116.78;5055156;28;1194;-51
2021/12/06 08:20:21;;;;;;;;;;;;;;;9.88;87.62;94120.09;5054553;28;1221;-51
2021/12/06 08:22:47;;;;;;;;;;;;;;;9.95;87.32;94131.72;5054844;28;1902;-51
2021/12/06 08:25:14;;;;;;;;;;;;;;;10.03;86.85;94132.66;5054909;28;974;-51
2021/12/06 08:27:40;;;;;;;;;;;;;;;10.08;85.89;94125.75;5054888;28;926;-51
2021/12/06 08:30:07;;;;;;;;;;;;;;;10.10;85.34;94122.91;5054653;28;1073;-50
2021/12/06 08:32:33;;;;;;;;;;;;;;;10.12;86.05;94132.38;5054285;28;1333;-51
2021/12/06 08:34:59;;;;;;;;;;;;;;;10.13;85.96;94130.53;5054988;28;973;-51
2021/12/06 08:37:26;;;;;;;;;;;;;;;10.07;86.77;94128.59;5053888;28;1068;-51
2021/12/06 08:39:52;;;;;;;;;;;;;;;10.11;86.36;94128.06;5054604;28;1093;-51
2021/12/06 08:42:18;;;;;;;;;;;;;;;10.18;86.49;94116.66;5054273;28;1906;-51
2021/12/06 08:44:44;;;;;;;;;;;;;;;10.15;86.85;94120.53;5054769;28;1108;-51
2021/12/06 08:47:10;;;;;;;;;;;;;;;10.12;87.12;94118.22;5054143;28;966;-51
2021/12/06 08:49:36;;;;;;;;;;;;;;;10.18;86.37;94125.47;5054697;28;986;-51
2021/12/06 08:52:03;;;;;;;;;;;;;;;10.27;85.93;94142.25;5054228;28;1024;-51
2021/12/06 08:54:29;;;;;;;;;;;;;;;10.27;85.46;94112.88;5054617;28;1060;-51
2021/12/06 08:56:56;;;;;;;;;;;;;;;10.20;86.53;94120.78;5054346;28;1017;-51
2021/12/06 08:59:23;;;;;;;;;;;;;;;10.28;86.09;94102.00;5054553;28;966;-51
2021/12/06 09:01:49;;;;;;;;;;;;;;;10.45;85.52;94107.19;5053931;28;1914;-51
2021/12/06 09:04:16;;;;;;;;;;;;;;;10.53;84.69;94115.13;5054215;28;1267;-51
2021/12/06 09:06:46;;;;;;;;;;;;;;;10.57;84.87;94107.53;5053694;28;1038;-51
2021/12/06 09:09:13;;;;;;;;;;;;;;;10.55;85.14;94119.25;5054174;28;1056;-51
2021/12/06 09:11:40;;;;;;;;;;;;;;;10.50;85.38;94096.75;5053568;28;977;-51
2021/12/06 09:14:07;;;;;;;;;;;;;;;10.48;85.13;94098.78;5054135;28;1012;-51
2021/12/06 09:16:36;;;;;;;;;;;;;;;10.61;85.03;94100.81;5053755;28;1032;-51
2021/12/06 09:19:03;;;;;;;;;;;;;;;10.70;84.78;94105.03;5053656;28;1158;-51
2021/12/06 09:21:29;;;;;;;;;;;;;;;10.76;84.42;94106.97;5053654;28;1906;-51
2021/12/06 09:23:58;;;;;;;;;;;;;;;10.80;84.00;94096.72;5054158;28;1073;-51
2021/12/06 09:26:24;;;;;;;;;;;;;;;10.78;83.94;94099.56;5053928;28;1064;-51
2021/12/06 09:28:50;;;;;;;;;;;;;;;10.90;83.29;94094.56;5053877;28;1038;-51
2021/12/06 09:31:19;;;;;;;;;;;;;;;10.90;84.63;94091.88;5053473;28;1159;-51
2021/12/06 09:33:45;;;;;;;;;;;;;;;10.92;83.77;94093.34;5053507;28;1321;-51
2021/12/06 09:36:12;;;;;;;;;;;;;;;10.92;84.25;94082.66;5053263;28;1113;-51
2021/12/06 09:38:40;;;;;;;;;;;;;;;10.97;83.88;94075.94;5053629;28;1009;-51
2021/12/06 09:41:11;;;;;;;;;;;;;;;11.02;83.82;94073.50;5053281;28;1918;-51
2021/12/06 09:43:39;;;;;;;;;;;;;;;11.08;83.77;94065.56;5053617;28;966;-51
2021/12/06 09:46:07;;;;;;;;;;;;;;;11.16;83.65;94058.41;5053408;28;1050;-51
2021/12/06 09:48:33;;;;;;;;;;;;;;;11.19;83.72;94058.03;5052472;28;1034;-51
2021/12/06 09:51:01;;;;;;;;;;;;;;;11.21;84.34;94064.00;5053414;28;958;-51
2021/12/06 09:53:29;;;;;;;;;;;;;;;11.18;83.52;94078.59;5053491;28;1096;-51
2021/12/06 09:55:58;;;;;;;;;;;;;;;11.14;84.37;94072.81;5053551;28;1073;-51
2021/12/06 09:58:24;;;;;;;;;;;;;;;11.11;84.28;94070.50;5053024;28;987;-51
2021/12/06 10:00:54;;;;;;;;;;;;;;;11.14;84.37;94066.63;5053509;28;965;-51
2021/12/06 10:03:24;;;;;;;;;;;;;;;10.92;86.06;94060.44;5052739;28;1942;-51
2021/12/06 10:05:51;;;;;;;;;;;;;;;10.66;86.73;94058.28;5053564;28;1004;-51
2021/12/06 10:08:18;;;;;;;;;;;;;;;10.66;86.26;94036.91;5052798;28;1028;-51
2021/12/06 10:10:44;;;;;;;;;;;;;;;10.71;86.08;94039.84;5053100;28;1058;-51
2021/12/06 10:13:10;;;;;;;;;;;;;;;10.77;86.92;94040.94;5052494;28;1055;-51
2021/12/06 10:15:36;;;;;;;;;;;;;;;10.87;86.21;94049.47;5052994;28;969;-51
2021/12/06 10:18:03;;;;;;;;;;;;;;;10.91;84.81;94046.25;5052428;28;1226;-51
2021/12/06 10:20:30;;;;;;;;;;;;;;;11.06;84.75;94048.88;5052569;28;1222;-51
2021/12/06 10:22:57;;;;;;;;;;;;;;;11.06;84.03;94048.88;5052656;28;2000;-50
2021/12/06 10:25:34;;;;;;;;;;;;;;;11.13;83.78;94041.75;5052912;28;1183;-51
2021/12/06 10:28:05;;;;;;;;;;;;;;;11.27;83.13;94049.88;5052555;28;1061;-51
2021/12/06 10:30:36;;;;;;;;;;;;;;;11.39;82.67;94045.66;5052905;28;1049;-51
2021/12/06 10:33:07;;;;;;;;;;;;;;;11.49;83.07;94042.63;5052330;28;1098;-51
2021/12/06 10:35:33;;;;;;;;;;;;;;;11.50;82.81;94036.28;5052588;28;1867;-51
2021/12/06 10:37:59;;;;;;;;;;;;;;;11.56;83.22;94045.38;5052256;28;1113;-51
2021/12/06 10:40:31;;;;;;;;;;;;;;;11.57;81.79;94029.09;5052539;28;1068;-51
2021/12/06 10:42:59;;;;;;;;;;;;;;;11.65;82.62;94052.25;5052053;28;1914;-51
2021/12/06 10:45:32;;;;;;;;;;;;;;;11.68;82.52;94043.81;5052432;28;1107;-51
2021/12/06 10:48:04;;;;;;;;;;;;;;;11.78;82.85;94030.94;5052144;28;1070;-51
2021/12/06 10:50:30;;;;;;;;;;;;;;;11.88;82.08;94031.41;5052577;28;1017;-51
2021/12/06 10:52:59;;;;;;;;;;;;;;;11.90;81.45;94024.03;5052298;28;1061;-51
2021/12/06 10:55:29;;;;;;;;;;;;;;;12.03;81.26;94027.81;5052221;28;1053;-51
2021/12/06 10:58:03;;;;;;;;;;;;;;;11.95;81.01;94028.81;5051968;28;982;-51
2021/12/06 11:00:31;;;;;;;;;;;;;;;11.88;81.26;94042.09;5054258;28;1039;-51
2021/12/06 11:02:57;;;;;;;;;;;;;;;11.77;81.98;94042.66;5056344;28;1996;-51
2021/12/06 11:05:24;;;;;;;;;;;;;;;11.65;81.92;94036.19;5056438;28;1046;-51
2021/12/06 11:08:06;;;;;;;;;;;;;;;11.64;82.39;94035.34;5056107;28;2041;-51
2021/12/06 11:10:36;;;;;;;;;;;;;;;11.73;82.57;94044.88;5056247;28;1005;-51
2021/12/06 11:13:13;;;;;;;;;;;;;;;11.61;81.96;94027.72;5055893;28;1144;-51
2021/12/06 11:15:57;;;;;;;;;;;;;;;11.57;82.06;94033.63;5056297;28;1088;-51
2021/12/06 11:18:30;;;;;;;;;;;;;;;11.67;82.22;94029.59;5055880;28;1229;-51
2021/12/06 11:20:57;;;;;;;;;;;;;;;11.57;82.15;94028.28;5055996;28;1903;-51
2021/12/06 11:23:23;;;;;;;;;;;;;;;11.60;82.68;94038.63;5055902;28;1910;-51
2021/12/06 11:25:56;;;;;;;;;;;;;;;11.54;82.98;94040.22;5056092;28;1025;-51
2021/12/06 11:28:23;;;;;;;;;;;;;;;11.39;83.02;94020.75;5055595;28;1084;-51
2021/12/06 11:31:00;;;;;;;;;;;;;;;11.37;81.90;94015.59;5056248;28;969;-52
2021/12/06 11:33:28;;;;;;;;;;;;;;;11.37;83.60;94006.75;5055375;28;1125;-51
2021/12/06 11:35:55;;;;;;;;;;;;;;;11.37;84.35;94009.41;5055876;28;1120;-51
2021/12/06 11:38:21;;;;;;;;;;;;;;;11.38;83.83;94008.38;5055613;28;1079;-51
2021/12/06 11:40:47;;;;;;;;;;;;;;;11.39;84.35;94010.88;5055700;28;1037;-51
2021/12/06 11:43:16;;;;;;;;;;;;;;;11.39;84.12;94010.88;5055606;28;1922;-51
2021/12/06 11:45:46;;;;;;;;;;;;;;;11.32;84.33;94009.97;5055637;28;1076;-51
2021/12/06 11:48:14;;;;;;;;;;;;;;;11.28;83.68;94006.03;5055337;28;1126;-51
2021/12/06 11:51:09;;;;;;;;;;;;;;;11.31;83.83;94003.81;5055804;28;1028;-51
2021/12/06 11:53:44;;;;;;;;;;;;;;;11.38;83.43;94009.19;5046373;28;1374;-51
2021/12/06 11:56:12;;;;;;;;;;;;;;;11.41;83.42;94002.66;5055253;28;1029;-50
2021/12/06 11:58:39;;;;;;;;;;;;;;;11.44;83.74;94011.13;5055116;28;1227;-51
2021/12/06 12:01:16;;;;;;;;;;;;;;;11.47;83.73;94012.56;5055410;28;1049;-51
2021/12/06 12:03:45;;;;;;;;;;;;;;;11.45;84.59;94019.97;5055113;28;1981;-51
2021/12/06 12:06:29;;;;;;;;;;;;;;;11.41;85.64;94011.50;5055543;28;957;-51
2021/12/06 12:09:14;;;;;;;;;;;;;;;11.39;85.55;94015.41;5054893;28;1144;-51
2021/12/06 12:11:59;;;;;;;;;;;;;;;11.33;85.72;94011.66;5054405;28;1048;-51
2021/12/06 12:14:31;;;;;;;;;;;;;;;11.25;85.32;94020.63;5054914;28;982;-51
2021/12/06 12:16:58;;;;;;;;;;;;;;;11.12;84.59;94026.69;5055448;28;1008;-51
2021/12/06 12:19:24;;;;;;;;;;;;;;;11.04;86.04;94023.31;5054687;28;1209;-51
2021/12/06 12:21:50;;;;;;;;;;;;;;;10.98;86.68;94016.06;5054906;28;1918;-51
2021/12/06 12:24:16;;;;;;;;;;;;;;;10.91;86.69;94022.19;5054381;28;1876;-50
2021/12/06 12:26:53;;;;;;;;;;;;;;;10.86;87.06;94019.25;5054989;28;2172;-50
2021/12/06 12:29:24;;;;;;;;;;;;;;;10.82;84.29;94015.28;5054759;28;1056;-50
2021/12/06 12:35:14;;;;;;;;;;;;;;;10.63;82.36;94014.06;2932587;28;2203;-51
2021/12/06 12:37:41;;;;;;;;;;;;;;;10.57;82.62;94001.47;5055046;28;1052;-50
2021/12/06 12:40:17;;;;;;;;;;;;;;;10.53;81.06;94002.88;5054241;28;1021;-50
2021/12/06 12:43:12;;;;;;;;;;;;;;;10.47;81.56;93996.44;5054627;28;1996;-50
2021/12/06 12:45:59;;;;;;;;;;;;;;;10.43;82.17;93991.63;5045756;28;1311;-50
2021/12/06 12:48:26;;;;;;;;;;;;;;;10.46;82.09;93999.28;5054295;28;1380;-50
2021/12/06 12:51:04;;;;;;;;;;;;;;;10.42;82.25;93998.00;5054421;28;950;-50
2021/12/06 12:53:54;;;;;;;;;;;;;;;10.43;81.23;94007.66;5054418;28;1033;-50
2021/12/06 12:56:21;;;;;;;;;;;;;;;10.39;81.48;94003.72;5048905;28;1939;-50
2021/12/06 12:58:48;;;;;;;;;;;;;;;10.42;82.58;94001.50;5054113;28;1097;-50
2021/12/06 13:01:14;;;;;;;;;;;;;;;10.43;82.40;94000.47;5054079;28;1996;-50
2021/12/06 13:03:43;;;;;;;;;;;;;;;10.35;83.99;93998.75;5054199;28;1016;-50
2021/12/06 13:06:12;;;;;;;;;;;;;;;10.37;83.50;94000.41;5053980;28;1049;-50
2021/12/06 13:08:38;;;;;;;;;;;;;;;10.45;83.23;93997.63;5053941;28;1049;-50
2021/12/06 13:11:04;;;;;;;;;;;;;;;10.54;82.69;93997.31;5053776;28;1064;-51
2021/12/06 13:13:33;;;;;;;;;;;;;;;10.59;83.99;94003.97;5053880;28;1883;-50
2021/12/06 13:16:08;;;;;;;;;;;;;;;10.48;84.99;94007.94;5053713;28;1076;-50
2021/12/06 13:19:00;;;;;;;;;;;;;;;10.44;85.89;94001.31;5053696;28;1197;-50
2021/12/06 13:21:43;;;;;;;;;;;;;;;10.51;84.38;93999.56;5053813;28;1898;-50
2021/12/06 13:24:13;;;;;;;;;;;;;;;10.64;83.86;94001.53;5053645;28;969;-50
2021/12/06 13:26:42;;;;;;;;;;;;;;;10.59;84.33;94007.44;5053897;28;1137;-50
2021/12/06 13:29:09;;;;;;;;;;;;;;;10.53;85.07;94014.38;5053751;28;1048;-50